Saxeville, Wisconsin
Current Conditions -  °F | °C
As of 9:55 PM on Wednesday 17 Dec 2014 (Local Time) from KPCZ Reporting Station
Overcast Overcast  
Wind Chill: 18°   Ceiling: 2800
Heat Index: 24°   Visibility: 10mi
Dew Point: 17°   Wind: 5mph
Humidity: 73%   Direction: 260°W
Pressure: 30.24"   Gusts: NA
Location:  44.18°N, 89.11°W
Report Text: KPCZ 180355Z AUTO 26004KT 10SM OVC028 M04/M08 A3024 RMK AO2 T10441085
Loading
Personal Weather Stations






























Interactive Weather Map New forecast layout! Learn more

10-Day Weather Forecast

Advertisements
Track Severe Weather on mobile